sensor_id;sensor_type;location;lat;lon;timestamp;pressure;altitude;pressure_sealevel;temperature;humidity
54736;BME280;40632;51.442;11.936;2022-10-23T00:00:45;100590.72;;;20.90;58.63
54736;BME280;40632;51.442;11.936;2022-10-23T00:03:13;100583.53;;;20.82;59.02
54736;BME280;40632;51.442;11.936;2022-10-23T00:05:39;100582.19;;;20.86;59.13
54736;BME280;40632;51.442;11.936;2022-10-23T00:08:05;100581.38;;;21.10;58.51
54736;BME280;40632;51.442;11.936;2022-10-23T00:10:30;100584.84;;;21.11;58.74
54736;BME280;40632;51.442;11.936;2022-10-23T00:12:56;100585.34;;;21.14;57.96
54736;BME280;40632;51.442;11.936;2022-10-23T00:15:22;100593.31;;;21.39;57.61
54736;BME280;40632;51.442;11.936;2022-10-23T00:17:48;100600.16;;;21.33;58.07
54736;BME280;40632;51.442;11.936;2022-10-23T00:20:17;100599.00;;;21.36;57.39
54736;BME280;40632;51.442;11.936;2022-10-23T00:22:43;100594.19;;;21.23;57.89
54736;BME280;40632;51.442;11.936;2022-10-23T00:25:09;100601.03;;;21.01;58.36
54736;BME280;40632;51.442;11.936;2022-10-23T00:27:34;100602.06;;;21.00;58.55
54736;BME280;40632;51.442;11.936;2022-10-23T00:30:01;100597.53;;;21.09;58.06
54736;BME280;40632;51.442;11.936;2022-10-23T00:32:27;100591.88;;;21.04;58.54
54736;BME280;40632;51.442;11.936;2022-10-23T00:34:53;100588.69;;;21.17;57.83
54736;BME280;40632;51.442;11.936;2022-10-23T00:37:21;100592.84;;;21.27;57.28
54736;BME280;40632;51.442;11.936;2022-10-23T00:39:47;100590.50;;;21.24;57.52
54736;BME280;40632;51.442;11.936;2022-10-23T00:42:14;100593.66;;;21.28;57.57
54736;BME280;40632;51.442;11.936;2022-10-23T00:45:08;100591.50;;;21.31;57.73
54736;BME280;40632;51.442;11.936;2022-10-23T00:47:35;100604.88;;;21.15;57.45
54736;BME280;40632;51.442;11.936;2022-10-23T00:50:00;100606.03;;;20.96;58.17
54736;BME280;40632;51.442;11.936;2022-10-23T00:52:29;100601.38;;;21.14;57.94
54736;BME280;40632;51.442;11.936;2022-10-23T00:54:55;100607.19;;;21.35;57.52
54736;BME280;40632;51.442;11.936;2022-10-23T00:57:21;100606.50;;;21.41;56.86
54736;BME280;40632;51.442;11.936;2022-10-23T00:59:47;100608.38;;;21.32;57.08
54736;BME280;40632;51.442;11.936;2022-10-23T01:02:13;100607.19;;;21.35;56.89
54736;BME280;40632;51.442;11.936;2022-10-23T01:04:39;100596.16;;;21.29;57.16
54736;BME280;40632;51.442;11.936;2022-10-23T01:07:09;100589.84;;;21.30;57.34
54736;BME280;40632;51.442;11.936;2022-10-23T01:09:43;100588.38;;;21.03;58.39
54736;BME280;40632;51.442;11.936;2022-10-23T01:12:18;100587.03;;;21.07;58.13
54736;BME280;40632;51.442;11.936;2022-10-23T01:14:54;100595.50;;;21.27;57.56
54736;BME280;40632;51.442;11.936;2022-10-23T01:17:29;100590.81;;;21.38;57.27
54736;BME280;40632;51.442;11.936;2022-10-23T01:20:08;100591.53;;;21.15;58.27
54736;BME280;40632;51.442;11.936;2022-10-23T01:22:53;100590.38;;;20.85;59.07
54736;BME280;40632;51.442;11.936;2022-10-23T01:25:32;100596.22;;;20.97;58.89
54736;BME280;40632;51.442;11.936;2022-10-23T01:28:07;100595.53;;;21.11;58.57
54736;BME280;40632;51.442;11.936;2022-10-23T01:30:37;100592.88;;;21.03;58.28
54736;BME280;40632;51.442;11.936;2022-10-23T01:33:06;100581.88;;;20.89;58.62
54736;BME280;40632;51.442;11.936;2022-10-23T01:35:36;100591.53;;;20.82;58.95
54736;BME280;40632;51.442;11.936;2022-10-23T01:38:08;100591.53;;;20.74;59.08
54736;BME280;40632;51.442;11.936;2022-10-23T01:40:41;100594.69;;;20.78;59.03
54736;BME280;40632;51.442;11.936;2022-10-23T01:43:16;100589.34;;;20.94;59.21
54736;BME280;40632;51.442;11.936;2022-10-23T01:45:45;100591.22;;;20.93;58.78
54736;BME280;40632;51.442;11.936;2022-10-23T01:48:14;100579.53;;;20.78;58.95
54736;BME280;40632;51.442;11.936;2022-10-23T01:50:43;100585.88;;;20.93;58.51
54736;BME280;40632;51.442;11.936;2022-10-23T01:53:09;100580.69;;;21.17;58.12
54736;BME280;40632;51.442;11.936;2022-10-23T01:55:36;100578.66;;;21.27;57.53
54736;BME280;40632;51.442;11.936;2022-10-23T01:58:05;100586.38;;;20.97;57.47
54736;BME280;40632;51.442;11.936;2022-10-23T02:00:35;100574.69;;;20.82;57.76
54736;BME280;40632;51.442;11.936;2022-10-23T02:03:05;100568.34;;;20.99;57.16
54736;BME280;40632;51.442;11.936;2022-10-23T02:05:32;100577.88;;;21.02;57.54
54736;BME280;40632;51.442;11.936;2022-10-23T02:07:59;100573.53;;;21.09;57.27
54736;BME280;40632;51.442;11.936;2022-10-23T02:10:31;100566.34;;;21.01;57.43
54736;BME280;40632;51.442;11.936;2022-10-23T02:12:59;100560.78;;;21.36;57.18
54736;BME280;40632;51.442;11.936;2022-10-23T02:15:29;100567.00;;;21.11;57.33
54736;BME280;40632;51.442;11.936;2022-10-23T02:18:04;100566.00;;;21.12;57.48
54736;BME280;40632;51.442;11.936;2022-10-23T02:20:36;100563.50;;;21.11;57.35
54736;BME280;40632;51.442;11.936;2022-10-23T02:23:13;100552.31;;;20.99;57.85
54736;BME280;40632;51.442;11.936;2022-10-23T02:25:45;100546.00;;;20.84;58.30
54736;BME280;40632;51.442;11.936;2022-10-23T02:28:17;100556.50;;;21.02;57.77
54736;BME280;40632;51.442;11.936;2022-10-23T02:30:45;100547.31;;;20.80;58.58
54736;BME280;40632;51.442;11.936;2022-10-23T02:33:16;100550.84;;;20.72;58.92
54736;BME280;40632;51.442;11.936;2022-10-23T02:35:43;100548.50;;;20.77;58.58
54736;BME280;40632;51.442;11.936;2022-10-23T02:38:28;100540.34;;;20.79;58.49
54736;BME280;40632;51.442;11.936;2022-10-23T02:40:57;100545.66;;;20.70;58.56
54736;BME280;40632;51.442;11.936;2022-10-23T02:43:30;100545.00;;;20.85;58.49
54736;BME280;40632;51.442;11.936;2022-10-23T02:46:03;100544.16;;;20.92;58.29
54736;BME280;40632;51.442;11.936;2022-10-23T02:48:43;100541.66;;;21.07;58.27
54736;BME280;40632;51.442;11.936;2022-10-23T02:51:15;100541.31;;;21.02;57.57
54736;BME280;40632;51.442;11.936;2022-10-23T02:53:48;100536.59;;;21.21;57.63
54736;BME280;40632;51.442;11.936;2022-10-23T02:56:22;100536.97;;;21.18;57.50
54736;BME280;40632;51.442;11.936;2022-10-23T02:58:59;100535.00;;;20.79;58.35
54736;BME280;40632;51.442;11.936;2022-10-23T03:01:45;100528.47;;;21.14;57.93
54736;BME280;40632;51.442;11.936;2022-10-23T03:04:15;100536.41;;;21.30;57.45
54736;BME280;40632;51.442;11.936;2022-10-23T03:06:41;100540.00;;;20.98;57.79
54736;BME280;40632;51.442;11.936;2022-10-23T03:09:08;100545.66;;;20.87;57.56
54736;BME280;40632;51.442;11.936;2022-10-23T03:11:34;100532.97;;;20.89;57.65
54736;BME280;40632;51.442;11.936;2022-10-23T03:14:00;100531.47;;;20.78;57.83
54736;BME280;40632;51.442;11.936;2022-10-23T03:16:26;100530.50;;;20.87;57.59
54736;BME280;40632;51.442;11.936;2022-10-23T03:18:51;100533.84;;;20.65;57.85
54736;BME280;40632;51.442;11.936;2022-10-23T03:21:19;100536.66;;;20.55;58.14
54736;BME280;40632;51.442;11.936;2022-10-23T03:23:45;100540.13;;;20.31;58.66
54736;BME280;40632;51.442;11.936;2022-10-23T03:26:11;100541.97;;;20.30;58.56
54736;BME280;40632;51.442;11.936;2022-10-23T03:28:36;100547.94;;;20.24;58.92
54736;BME280;40632;51.442;11.936;2022-10-23T03:31:02;100545.75;;;20.28;59.07
54736;BME280;40632;51.442;11.936;2022-10-23T03:33:28;100538.63;;;20.36;58.63
54736;BME280;40632;51.442;11.936;2022-10-23T03:35:54;100530.94;;;20.25;58.62
54736;BME280;40632;51.442;11.936;2022-10-23T03:38:22;100543.53;;;19.98;59.26
54736;BME280;40632;51.442;11.936;2022-10-23T03:40:47;100540.91;;;19.72;59.69
54736;BME280;40632;51.442;11.936;2022-10-23T03:43:13;100530.72;;;20.02;59.77
54736;BME280;40632;51.442;11.936;2022-10-23T03:45:39;100523.75;;;20.09;59.43
54736;BME280;40632;51.442;11.936;2022-10-23T03:48:05;100525.19;;;19.95;59.63
54736;BME280;40632;51.442;11.936;2022-10-23T03:50:31;100524.28;;;20.21;59.30
54736;BME280;40632;51.442;11.936;2022-10-23T03:52:57;100520.28;;;20.25;58.71
54736;BME280;40632;51.442;11.936;2022-10-23T03:55:25;100525.06;;;20.05;59.09
54736;BME280;40632;51.442;11.936;2022-10-23T03:57:51;100526.28;;;20.27;58.67
54736;BME280;40632;51.442;11.936;2022-10-23T04:00:17;100532.09;;;20.23;58.79
54736;BME280;40632;51.442;11.936;2022-10-23T04:02:42;100533.22;;;20.12;59.15
54736;BME280;40632;51.442;11.936;2022-10-23T04:05:08;100533.00;;;19.80;59.80
54736;BME280;40632;51.442;11.936;2022-10-23T04:07:34;100527.41;;;20.00;59.01
54736;BME280;40632;51.442;11.936;2022-10-23T04:09:59;100529.81;;;19.85;59.69
54736;BME280;40632;51.442;11.936;2022-10-23T04:12:27;100531.59;;;19.68;60.43
54736;BME280;40632;51.442;11.936;2022-10-23T04:14:53;100524.84;;;19.48;60.73
54736;BME280;40632;51.442;11.936;2022-10-23T04:17:18;100531.38;;;19.53;60.90
54736;BME280;40632;51.442;11.936;2022-10-23T04:19:44;100537.50;;;19.54;60.68
54736;BME280;40632;51.442;11.936;2022-10-23T04:22:10;100537.81;;;19.42;60.94
54736;BME280;40632;51.442;11.936;2022-10-23T04:24:35;100540.84;;;19.48;60.62
54736;BME280;40632;51.442;11.936;2022-10-23T04:27:01;100538.78;;;19.41;61.21
54736;BME280;40632;51.442;11.936;2022-10-23T04:29:29;100537.88;;;19.67;60.44
54736;BME280;40632;51.442;11.936;2022-10-23T04:31:54;100540.50;;;19.85;59.79
54736;BME280;40632;51.442;11.936;2022-10-23T04:34:20;100534.19;;;19.60;60.41
54736;BME280;40632;51.442;11.936;2022-10-23T04:36:46;100532.03;;;19.55;60.50
54736;BME280;40632;51.442;11.936;2022-10-23T04:39:11;100526.19;;;19.52;60.92
54736;BME280;40632;51.442;11.936;2022-10-23T04:41:37;100520.03;;;19.51;60.75
54736;BME280;40632;51.442;11.936;2022-10-23T04:44:02;100521.75;;;19.69;60.43
54736;BME280;40632;51.442;11.936;2022-10-23T04:46:31;100524.66;;;19.75;60.37
54736;BME280;40632;51.442;11.936;2022-10-23T04:48:56;100523.03;;;19.56;60.72
54736;BME280;40632;51.442;11.936;2022-10-23T04:51:22;100525.19;;;19.53;60.69
54736;BME280;40632;51.442;11.936;2022-10-23T04:53:47;100523.31;;;19.79;60.60
54736;BME280;40632;51.442;11.936;2022-10-23T04:56:14;100526.78;;;19.72;60.24
54736;BME280;40632;51.442;11.936;2022-10-23T04:58:40;100529.53;;;19.54;61.21
54736;BME280;40632;51.442;11.936;2022-10-23T05:01:06;100524.69;;;19.84;60.14
54736;BME280;40632;51.442;11.936;2022-10-23T05:03:34;100526.50;;;19.83;60.27
54736;BME280;40632;51.442;11.936;2022-10-23T05:06:00;100527.22;;;19.59;60.67
54736;BME280;40632;51.442;11.936;2022-10-23T05:08:25;100526.78;;;19.72;61.04
54736;BME280;40632;51.442;11.936;2022-10-23T05:10:51;100516.28;;;19.36;61.38
54736;BME280;40632;51.442;11.936;2022-10-23T05:13:17;100515.59;;;20.11;60.03
54736;BME280;40632;51.442;11.936;2022-10-23T05:15:44;100514.16;;;19.74;60.96
54736;BME280;40632;51.442;11.936;2022-10-23T05:18:12;100507.09;;;19.65;60.91
54736;BME280;40632;51.442;11.936;2022-10-23T05:20:42;100513.22;;;19.57;61.40
54736;BME280;40632;51.442;11.936;2022-10-23T05:23:10;100505.41;;;19.63;60.92
54736;BME280;40632;51.442;11.936;2022-10-23T05:25:37;100507.25;;;19.55;61.46
54736;BME280;40632;51.442;11.936;2022-10-23T05:28:02;100508.91;;;20.15;59.93
54736;BME280;40632;51.442;11.936;2022-10-23T05:30:28;100510.50;;;19.83;60.59
54736;BME280;40632;51.442;11.936;2022-10-23T05:32:54;100509.69;;;19.48;61.56
54736;BME280;40632;51.442;11.936;2022-10-23T05:35:22;100507.06;;;19.56;61.37
54736;BME280;40632;51.442;11.936;2022-10-23T05:37:51;100497.19;;;19.75;61.26
54736;BME280;40632;51.442;11.936;2022-10-23T05:40:18;100489.13;;;19.67;60.70
54736;BME280;40632;51.442;11.936;2022-10-23T05:42:44;100494.69;;;19.39;61.53
54736;BME280;40632;51.442;11.936;2022-10-23T05:45:10;100488.25;;;19.58;61.35
54736;BME280;40632;51.442;11.936;2022-10-23T05:47:35;100486.72;;;19.47;61.20
54736;BME280;40632;51.442;11.936;2022-10-23T05:50:01;100487.09;;;19.60;60.74
54736;BME280;40632;51.442;11.936;2022-10-23T05:52:27;100490.09;;;19.57;61.00
54736;BME280;40632;51.442;11.936;2022-10-23T05:54:55;100491.50;;;19.35;61.50
54736;BME280;40632;51.442;11.936;2022-10-23T05:57:20;100492.03;;;19.13;62.48
54736;BME280;40632;51.442;11.936;2022-10-23T05:59:46;100494.69;;;19.39;61.58
54736;BME280;40632;51.442;11.936;2022-10-23T06:02:11;100499.66;;;19.34;61.50
54736;BME280;40632;51.442;11.936;2022-10-23T06:04:37;100499.88;;;19.14;62.18
54736;BME280;40632;51.442;11.936;2022-10-23T06:07:03;100496.72;;;19.19;62.41
54736;BME280;40632;51.442;11.936;2022-10-23T06:09:28;100502.47;;;19.32;61.75
54736;BME280;40632;51.442;11.936;2022-10-23T06:11:57;100504.03;;;19.94;60.34
54736;BME280;40632;51.442;11.936;2022-10-23T06:14:22;100504.59;;;19.63;60.93
54736;BME280;40632;51.442;11.936;2022-10-23T06:16:48;100514.00;;;19.41;61.90
54736;BME280;40632;51.442;11.936;2022-10-23T06:19:13;100515.66;;;19.42;61.63
54736;BME280;40632;51.442;11.936;2022-10-23T06:21:39;100519.31;;;19.41;61.31
54736;BME280;40632;51.442;11.936;2022-10-23T06:24:05;100512.56;;;19.55;61.08
54736;BME280;40632;51.442;11.936;2022-10-23T06:26:31;100506.03;;;19.49;61.61
54736;BME280;40632;51.442;11.936;2022-10-23T06:28:59;100497.56;;;20.05;60.40
54736;BME280;40632;51.442;11.936;2022-10-23T06:31:25;100502.50;;;19.83;60.80
54736;BME280;40632;51.442;11.936;2022-10-23T06:33:51;100510.19;;;19.86;61.17
54736;BME280;40632;51.442;11.936;2022-10-23T06:36:17;100512.09;;;19.68;61.36
54736;BME280;40632;51.442;11.936;2022-10-23T06:38:42;100505.25;;;20.08;60.77
54736;BME280;40632;51.442;11.936;2022-10-23T06:41:11;100496.75;;;20.04;60.52
54736;BME280;40632;51.442;11.936;2022-10-23T06:43:38;100512.22;;;20.00;60.59
54736;BME280;40632;51.442;11.936;2022-10-23T06:46:06;100510.63;;;20.57;59.67
54736;BME280;40632;51.442;11.936;2022-10-23T06:48:32;100510.28;;;20.27;60.49
54736;BME280;40632;51.442;11.936;2022-10-23T06:50:58;100513.63;;;20.37;60.33
54736;BME280;40632;51.442;11.936;2022-10-23T06:53:24;100515.59;;;20.19;60.60
54736;BME280;40632;51.442;11.936;2022-10-23T06:55:50;100523.09;;;20.24;61.14
54736;BME280;40632;51.442;11.936;2022-10-23T06:58:15;100499.66;;;20.68;60.17
54736;BME280;40632;51.442;11.936;2022-10-23T07:00:41;100515.44;;;20.12;61.43
54736;BME280;40632;51.442;11.936;2022-10-23T07:03:09;100511.44;;;20.49;60.71
54736;BME280;40632;51.442;11.936;2022-10-23T07:05:35;100502.03;;;21.19;59.14
54736;BME280;40632;51.442;11.936;2022-10-23T07:08:03;100509.16;;;21.43;58.26
54736;BME280;40632;51.442;11.936;2022-10-23T07:10:29;100497.50;;;21.84;57.53
54736;BME280;40632;51.442;11.936;2022-10-23T07:12:54;100497.03;;;21.72;57.38
54736;BME280;40632;51.442;11.936;2022-10-23T07:15:20;100502.22;;;21.74;57.75
54736;BME280;40632;51.442;11.936;2022-10-23T07:17:45;100508.34;;;21.82;57.41
54736;BME280;40632;51.442;11.936;2022-10-23T07:20:14;100513.97;;;21.64;57.97
54736;BME280;40632;51.442;11.936;2022-10-23T07:22:39;100506.56;;;21.98;57.29
54736;BME280;40632;51.442;11.936;2022-10-23T07:25:06;100499.81;;;22.41;56.55
54736;BME280;40632;51.442;11.936;2022-10-23T07:27:35;100502.00;;;22.06;57.07
54736;BME280;40632;51.442;11.936;2022-10-23T07:30:00;100514.63;;;22.21;56.45
54736;BME280;40632;51.442;11.936;2022-10-23T07:32:26;100516.00;;;22.17;56.45
54736;BME280;40632;51.442;11.936;2022-10-23T07:34:51;100517.66;;;21.95;57.23
54736;BME280;40632;51.442;11.936;2022-10-23T07:37:20;100512.81;;;21.90;57.31
54736;BME280;40632;51.442;11.936;2022-10-23T07:39:46;100508.16;;;22.15;57.01
54736;BME280;40632;51.442;11.936;2022-10-23T07:42:11;100501.88;;;22.00;57.13
54736;BME280;40632;51.442;11.936;2022-10-23T07:44:37;100493.53;;;22.26;56.62
54736;BME280;40632;51.442;11.936;2022-10-23T07:47:02;100493.50;;;22.34;56.45
54736;BME280;40632;51.442;11.936;2022-10-23T07:49:28;100500.38;;;22.05;57.37
54736;BME280;40632;51.442;11.936;2022-10-23T07:51:54;100498.66;;;22.13;57.24
54736;BME280;40632;51.442;11.936;2022-10-23T07:54:22;100490.72;;;22.65;56.40
54736;BME280;40632;51.442;11.936;2022-10-23T07:56:47;100481.16;;;22.48;56.60
54736;BME280;40632;51.442;11.936;2022-10-23T07:59:13;100484.72;;;22.63;56.22
54736;BME280;40632;51.442;11.936;2022-10-23T08:01:39;100468.25;;;22.90;55.65
54736;BME280;40632;51.442;11.936;2022-10-23T08:04:05;100466.91;;;23.24;55.11
54736;BME280;40632;51.442;11.936;2022-10-23T08:06:32;100474.28;;;23.07;55.30
54736;BME280;40632;51.442;11.936;2022-10-23T08:08:57;100472.50;;;22.99;55.30
54736;BME280;40632;51.442;11.936;2022-10-23T08:11:25;100473.56;;;23.13;55.68
54736;BME280;40632;51.442;11.936;2022-10-23T08:13:51;100474.56;;;23.12;56.21
54736;BME280;40632;51.442;11.936;2022-10-23T08:16:17;100474.16;;;22.85;56.24
54736;BME280;40632;51.442;11.936;2022-10-23T08:18:43;100478.97;;;22.90;56.20
54736;BME280;40632;51.442;11.936;2022-10-23T08:21:09;100472.91;;;23.26;55.47
54736;BME280;40632;51.442;11.936;2022-10-23T08:23:35;100472.56;;;23.65;54.71
54736;BME280;40632;51.442;11.936;2022-10-23T08:26:03;100479.00;;;23.34;55.39
54736;BME280;40632;51.442;11.936;2022-10-23T08:28:32;100472.50;;;23.44;55.26
54736;BME280;40632;51.442;11.936;2022-10-23T08:30:57;100468.88;;;23.66;54.86
54736;BME280;40632;51.442;11.936;2022-10-23T08:33:24;100465.03;;;23.24;55.89
54736;BME280;40632;51.442;11.936;2022-10-23T08:35:50;100470.34;;;23.69;54.88
54736;BME280;40632;51.442;11.936;2022-10-23T08:38:16;100470.50;;;23.82;54.22
54736;BME280;40632;51.442;11.936;2022-10-23T08:40:44;100468.19;;;23.79;54.69
54736;BME280;40632;51.442;11.936;2022-10-23T08:43:14;100479.75;;;23.79;54.39
54736;BME280;40632;51.442;11.936;2022-10-23T08:45:47;100474.94;;;23.75;55.52
54736;BME280;40632;51.442;11.936;2022-10-23T08:48:18;100474.88;;;24.26;54.17
54736;BME280;40632;51.442;11.936;2022-10-23T08:50:48;100461.06;;;24.51;53.37
54736;BME280;40632;51.442;11.936;2022-10-23T08:53:19;100466.19;;;24.24;54.29
54736;BME280;40632;51.442;11.936;2022-10-23T08:55:54;100466.72;;;24.13;54.11
54736;BME280;40632;51.442;11.936;2022-10-23T08:58:23;100463.69;;;24.44;53.53
54736;BME280;40632;51.442;11.936;2022-10-23T09:00:53;100467.47;;;24.07;54.77
54736;BME280;40632;51.442;11.936;2022-10-23T09:03:20;100460.41;;;24.49;54.26
54736;BME280;40632;51.442;11.936;2022-10-23T09:05:56;100467.78;;;24.90;53.34
54736;BME280;40632;51.442;11.936;2022-10-23T09:08:35;100463.72;;;25.07;52.91
54736;BME280;40632;51.442;11.936;2022-10-23T09:11:06;100462.31;;;25.53;52.16
54736;BME280;40632;51.442;11.936;2022-10-23T09:16:50;100458.09;;;25.92;51.28
54736;BME280;40632;51.442;11.936;2022-10-23T09:19:21;100455.91;;;26.29;50.81
54736;BME280;40632;51.442;11.936;2022-10-23T09:21:48;100451.91;;;25.98;52.04
54736;BME280;40632;51.442;11.936;2022-10-23T09:24:16;100463.34;;;26.74;49.91
54736;BME280;40632;51.442;11.936;2022-10-23T09:26:41;100465.22;;;26.73;50.90
54736;BME280;40632;51.442;11.936;2022-10-23T09:29:18;100463.28;;;27.14;49.90
54736;BME280;40632;51.442;11.936;2022-10-23T09:31:52;100467.06;;;26.86;49.45
54736;BME280;40632;51.442;11.936;2022-10-23T09:34:21;100467.38;;;27.36;49.09
54736;BME280;40632;51.442;11.936;2022-10-23T09:36:52;100449.75;;;27.27;49.39
54736;BME280;40632;51.442;11.936;2022-10-23T09:39:25;100456.34;;;27.83;48.44
54736;BME280;40632;51.442;11.936;2022-10-23T09:41:51;100454.94;;;27.74;48.60
54736;BME280;40632;51.442;11.936;2022-10-23T09:44:18;100452.78;;;27.89;48.91
54736;BME280;40632;51.442;11.936;2022-10-23T09:46:46;100444.56;;;28.09;48.48
54736;BME280;40632;51.442;11.936;2022-10-23T09:49:23;100445.63;;;28.08;48.29
54736;BME280;40632;51.442;11.936;2022-10-23T09:51:58;100440.41;;;28.39;49.09
54736;BME280;40632;51.442;11.936;2022-10-23T09:54:24;100440.50;;;28.25;49.18
54736;BME280;40632;51.442;11.936;2022-10-23T09:56:52;100422.09;;;28.41;48.81
54736;BME280;40632;51.442;11.936;2022-10-23T09:59:22;100422.38;;;28.32;49.00
54736;BME280;40632;51.442;11.936;2022-10-23T10:01:50;100424.88;;;28.02;49.47
54736;BME280;40632;51.442;11.936;2022-10-23T10:04:16;100419.91;;;27.67;49.72
54736;BME280;40632;51.442;11.936;2022-10-23T10:06:45;100418.63;;;28.08;49.15
54736;BME280;40632;51.442;11.936;2022-10-23T10:09:12;100413.91;;;27.97;49.49
54736;BME280;40632;51.442;11.936;2022-10-23T10:11:41;100404.06;;;27.46;50.10
54736;BME280;40632;51.442;11.936;2022-10-23T10:14:29;100414.16;;;27.95;49.59
54736;BME280;40632;51.442;11.936;2022-10-23T10:17:00;100415.41;;;27.93;49.20
54736;BME280;40632;51.442;11.936;2022-10-23T10:19:44;100412.06;;;28.23;48.84
54736;BME280;40632;51.442;11.936;2022-10-23T10:22:25;100407.44;;;28.05;48.80
54736;BME280;40632;51.442;11.936;2022-10-23T10:24:57;100407.44;;;28.30;48.88
54736;BME280;40632;51.442;11.936;2022-10-23T10:27:37;100402.47;;;27.70;49.28
54736;BME280;40632;51.442;11.936;2022-10-23T10:30:11;100398.19;;;27.55;49.40
54736;BME280;40632;51.442;11.936;2022-10-23T10:32:40;100387.22;;;27.82;49.34
54736;BME280;40632;51.442;11.936;2022-10-23T10:35:21;100393.69;;;27.49;48.98
54736;BME280;40632;51.442;11.936;2022-10-23T10:38:04;100402.03;;;27.73;49.12
54736;BME280;40632;51.442;11.936;2022-10-23T10:40:40;100392.09;;;28.49;47.54
54736;BME280;40632;51.442;11.936;2022-10-23T10:43:23;100381.78;;;28.83;47.05
54736;BME280;40632;51.442;11.936;2022-10-23T10:45:56;100383.06;;;28.99;46.99
54736;BME280;40632;51.442;11.936;2022-10-23T10:48:40;100387.66;;;28.80;46.75
54736;BME280;40632;51.442;11.936;2022-10-23T10:51:07;100385.06;;;28.48;46.99
54736;BME280;40632;51.442;11.936;2022-10-23T10:53:50;100380.47;;;28.92;46.27
54736;BME280;40632;51.442;11.936;2022-10-23T10:56:20;100374.16;;;28.36;47.43
54736;BME280;40632;51.442;11.936;2022-10-23T10:58:50;100373.84;;;28.69;46.33
54736;BME280;40632;51.442;11.936;2022-10-23T11:01:21;100365.53;;;28.46;46.84
54736;BME280;40632;51.442;11.936;2022-10-23T11:03:52;100366.38;;;28.46;46.54
54736;BME280;40632;51.442;11.936;2022-10-23T11:06:21;100364.91;;;28.69;46.46
54736;BME280;40632;51.442;11.936;2022-10-23T11:08:51;100360.16;;;28.46;46.35
54736;BME280;40632;51.442;11.936;2022-10-23T11:11:19;100364.78;;;28.39;46.38
54736;BME280;40632;51.442;11.936;2022-10-23T11:13:49;100368.75;;;28.80;45.88
54736;BME280;40632;51.442;11.936;2022-10-23T11:16:19;100370.69;;;28.73;45.83
54736;BME280;40632;51.442;11.936;2022-10-23T11:18:54;100364.75;;;28.64;45.81
54736;BME280;40632;51.442;11.936;2022-10-23T11:21:29;100357.59;;;28.51;46.02
54736;BME280;40632;51.442;11.936;2022-10-23T11:24:17;100347.50;;;29.32;44.79
54736;BME280;40632;51.442;11.936;2022-10-23T11:26:57;100338.31;;;28.84;45.39
54736;BME280;40632;51.442;11.936;2022-10-23T11:29:54;100325.84;;;29.62;44.22
54736;BME280;40632;51.442;11.936;2022-10-23T11:32:39;100327.78;;;29.97;43.66
54736;BME280;40632;51.442;11.936;2022-10-23T11:35:21;100322.38;;;30.09;42.85
54736;BME280;40632;51.442;11.936;2022-10-23T11:37:58;100322.41;;;30.21;42.64
54736;BME280;40632;51.442;11.936;2022-10-23T11:40:28;100319.31;;;29.40;44.24
54736;BME280;40632;51.442;11.936;2022-10-23T11:42:53;100312.03;;;28.92;45.17
54736;BME280;40632;51.442;11.936;2022-10-23T11:45:30;100298.25;;;29.42;44.58
54736;BME280;40632;51.442;11.936;2022-10-23T11:47:57;100292.13;;;29.35;44.35
54736;BME280;40632;51.442;11.936;2022-10-23T11:50:27;100286.88;;;29.63;44.39
54736;BME280;40632;51.442;11.936;2022-10-23T11:53:04;100286.25;;;28.77;45.54
54736;BME280;40632;51.442;11.936;2022-10-23T11:55:33;100288.66;;;28.67;45.47
54736;BME280;40632;51.442;11.936;2022-10-23T11:58:10;100289.81;;;28.52;45.84
54736;BME280;40632;51.442;11.936;2022-10-23T12:00:50;100282.25;;;29.40;44.22
54736;BME280;40632;51.442;11.936;2022-10-23T12:03:19;100282.00;;;29.00;44.84
54736;BME280;40632;51.442;11.936;2022-10-23T12:05:58;100268.75;;;29.52;44.02
54736;BME280;40632;51.442;11.936;2022-10-23T12:08:27;100265.59;;;28.83;45.29
54736;BME280;40632;51.442;11.936;2022-10-23T12:10:56;100261.03;;;29.14;44.42
54736;BME280;40632;51.442;11.936;2022-10-23T12:13:41;100266.13;;;28.73;44.73
54736;BME280;40632;51.442;11.936;2022-10-23T12:16:07;100251.41;;;29.30;44.41
54736;BME280;40632;51.442;11.936;2022-10-23T12:18:44;100245.69;;;28.96;44.57
54736;BME280;40632;51.442;11.936;2022-10-23T12:21:16;100239.66;;;28.94;44.40
54736;BME280;40632;51.442;11.936;2022-10-23T12:26:52;100248.63;;;28.76;44.82
54736;BME280;40632;51.442;11.936;2022-10-23T12:29:30;100244.88;;;29.37;44.06
54736;BME280;40632;51.442;11.936;2022-10-23T12:32:04;100235.97;;;29.96;43.03
54736;BME280;40632;51.442;11.936;2022-10-23T12:34:40;100241.94;;;29.51;43.43
54736;BME280;40632;51.442;11.936;2022-10-23T12:37:24;100231.84;;;30.17;42.66
54736;BME280;40632;51.442;11.936;2022-10-23T12:39:55;100235.75;;;29.62;43.27
54736;BME280;40632;51.442;11.936;2022-10-23T12:42:26;100241.38;;;29.72;43.45
54736;BME280;40632;51.442;11.936;2022-10-23T12:44:59;100221.03;;;29.46;43.29
54736;BME280;40632;51.442;11.936;2022-10-23T12:47:25;100227.75;;;29.79;43.18
54736;BME280;40632;51.442;11.936;2022-10-23T12:49:51;100225.94;;;30.20;42.61
54736;BME280;40632;51.442;11.936;2022-10-23T12:52:18;100225.91;;;31.47;40.94
54736;BME280;40632;51.442;11.936;2022-10-23T12:54:44;100222.53;;;30.36;42.49
54736;BME280;40632;51.442;11.936;2022-10-23T12:57:18;100218.44;;;30.10;42.78